createdAt,value
2024-01-28T00:00:37.971Z,5.82
2024-01-28T00:03:04.629Z,5.53
2024-01-28T00:05:31.188Z,5.20
2024-01-28T00:07:57.611Z,5.13
2024-01-28T00:10:23.965Z,5.88
2024-01-28T00:12:50.346Z,5.38
2024-01-28T00:15:16.780Z,5.30
2024-01-28T00:17:43.156Z,5.35
2024-01-28T00:20:10.263Z,4.97
2024-01-28T00:22:36.665Z,5.18
2024-01-28T00:25:03.396Z,5.07
2024-01-28T00:27:29.735Z,5.23
2024-01-28T00:29:56.104Z,5.10
2024-01-28T00:32:22.624Z,5.32
2024-01-28T00:34:51.284Z,5.13
2024-01-28T00:37:18.265Z,5.43
2024-01-28T00:39:44.770Z,5.40
2024-01-28T00:42:11.258Z,5.43
2024-01-28T00:44:38.513Z,5.35
2024-01-28T00:47:04.912Z,5.72
2024-01-28T00:49:31.535Z,5.78
2024-01-28T00:51:58.305Z,5.50
2024-01-28T00:54:26.064Z,5.80
2024-01-28T00:56:53.361Z,5.68
2024-01-28T00:59:20.443Z,5.40
2024-01-28T01:01:47.065Z,5.68
2024-01-28T01:04:13.650Z,5.37
2024-01-28T01:06:43.378Z,5.18
2024-01-28T01:09:09.859Z,6.10
2024-01-28T01:11:36.630Z,4.82
2024-01-28T01:14:03.072Z,5.43
2024-01-28T01:16:29.393Z,4.97
2024-01-28T01:18:55.835Z,4.80
2024-01-28T01:21:22.267Z,4.93
2024-01-28T01:23:48.637Z,5.15
2024-01-28T01:26:15.045Z,5.93
2024-01-28T01:28:41.544Z,5.20
2024-01-28T01:31:07.931Z,4.70
2024-01-28T01:33:34.594Z,4.95
2024-01-28T01:36:01.295Z,4.53
2024-01-28T01:38:28.430Z,3.70
2024-01-28T01:40:54.809Z,4.40
2024-01-28T01:43:21.217Z,4.13
2024-01-28T01:45:47.659Z,4.68
2024-01-28T01:48:14.507Z,4.90
2024-01-28T01:50:41.629Z,4.90
2024-01-28T01:53:10.252Z,4.80
2024-01-28T01:55:39.508Z,4.30
2024-01-28T01:58:06.495Z,4.53
2024-01-28T02:00:34.443Z,4.35
2024-01-28T02:03:02.552Z,4.65
2024-01-28T02:05:29.201Z,4.17
2024-01-28T02:07:55.657Z,3.90
2024-01-28T02:10:22.285Z,4.03
2024-01-28T02:12:49.067Z,4.07
2024-01-28T02:15:15.519Z,4.13
2024-01-28T02:17:41.916Z,4.00
2024-01-28T02:20:08.705Z,4.22
2024-01-28T02:22:35.062Z,4.03
2024-01-28T02:25:01.458Z,3.80
2024-01-28T02:27:27.992Z,3.88
2024-01-28T02:30:23.639Z,4.03
2024-01-28T02:32:52.051Z,3.85
2024-01-28T02:35:19.532Z,3.70
2024-01-28T02:37:46.072Z,4.50
2024-01-28T02:40:12.793Z,3.83
2024-01-28T02:42:39.190Z,4.33
2024-01-28T02:45:06.844Z,3.70
2024-01-28T02:47:33.253Z,4.22
2024-01-28T02:49:59.657Z,4.03
2024-01-28T02:52:26.095Z,3.95
2024-01-28T02:54:53.914Z,4.23
2024-01-28T02:57:20.386Z,4.60
2024-01-28T02:59:46.797Z,3.90
2024-01-28T03:02:13.146Z,3.95
2024-01-28T03:04:39.899Z,3.50
2024-01-28T03:07:08.452Z,3.90
2024-01-28T03:09:36.303Z,3.97
2024-01-28T03:12:02.878Z,4.15
2024-01-28T03:14:29.275Z,4.25
2024-01-28T03:16:55.606Z,4.28
2024-01-28T03:19:22.008Z,3.70
2024-01-28T03:21:48.579Z,3.92
2024-01-28T03:24:15.074Z,3.78
2024-01-28T03:26:41.490Z,4.22
2024-01-28T03:29:07.927Z,4.18
2024-01-28T03:31:34.366Z,3.90
2024-01-28T03:34:01.083Z,4.07
2024-01-28T03:36:27.608Z,4.60
2024-01-28T03:38:54.004Z,4.65
2024-01-28T03:41:20.377Z,4.93
2024-01-28T03:43:46.834Z,4.47
2024-01-28T03:46:13.837Z,4.35
2024-01-28T03:48:40.297Z,4.20
2024-01-28T03:51:08.450Z,4.07
2024-01-28T03:53:34.860Z,4.25
2024-01-28T03:56:01.247Z,4.27
2024-01-28T03:58:27.650Z,4.60
2024-01-28T04:00:54.183Z,4.05
2024-01-28T04:03:20.994Z,4.05
2024-01-28T04:05:47.443Z,4.10
2024-01-28T04:08:13.796Z,4.40
2024-01-28T04:10:40.157Z,4.35
2024-01-28T04:13:06.492Z,3.90
2024-01-28T04:15:32.847Z,4.32
2024-01-28T04:17:59.392Z,4.57
2024-01-28T04:20:25.935Z,3.53
2024-01-28T04:22:53.377Z,4.30
2024-01-28T04:25:19.744Z,4.28
2024-01-28T04:27:46.282Z,4.82
2024-01-28T04:30:12.837Z,3.55
2024-01-28T04:32:39.206Z,4.13
2024-01-28T04:35:06.038Z,4.20
2024-01-28T04:37:32.388Z,4.47
2024-01-28T04:39:59.789Z,3.25
2024-01-28T04:42:26.224Z,3.40
2024-01-28T04:44:52.970Z,4.20
2024-01-28T04:47:19.373Z,4.18
2024-01-28T04:49:46.401Z,4.18
2024-01-28T04:52:13.121Z,4.65
2024-01-28T04:54:39.686Z,3.80
2024-01-28T04:57:06.218Z,4.27
2024-01-28T04:59:32.700Z,4.05
2024-01-28T05:01:59.134Z,3.83
2024-01-28T05:04:25.592Z,4.47
2024-01-28T05:06:52.107Z,3.85
2024-01-28T05:09:18.600Z,4.07
2024-01-28T05:11:45.099Z,3.95
2024-01-28T05:14:11.563Z,3.80
2024-01-28T05:16:37.887Z,4.38
2024-01-28T05:19:04.389Z,3.67
2024-01-28T05:21:30.837Z,4.10
2024-01-28T05:23:57.231Z,3.35
2024-01-28T05:26:23.891Z,3.67
2024-01-28T05:28:50.276Z,2.90
2024-01-28T05:31:17.882Z,3.13
2024-01-28T05:33:44.313Z,3.60
2024-01-28T05:36:15.596Z,3.17
2024-01-28T05:38:42.592Z,2.92
2024-01-28T05:41:09.345Z,3.38
2024-01-28T05:43:35.816Z,3.50
2024-01-28T05:46:03.382Z,3.10
2024-01-28T05:48:30.022Z,3.78
2024-01-28T05:50:56.673Z,2.90
2024-01-28T05:53:23.049Z,2.80
2024-01-28T05:55:49.427Z,2.78
2024-01-28T05:58:15.777Z,3.30
2024-01-28T06:00:42.203Z,3.13
2024-01-28T06:03:08.642Z,3.42
2024-01-28T06:05:35.117Z,3.08
2024-01-28T06:08:01.512Z,2.92
2024-01-28T06:10:27.839Z,2.77
2024-01-28T06:12:54.322Z,3.15
2024-01-28T06:15:20.782Z,3.55
2024-01-28T06:17:47.314Z,3.30
2024-01-28T06:20:13.741Z,3.20
2024-01-28T06:22:40.058Z,3.37
2024-01-28T06:25:08.216Z,3.97
2024-01-28T06:27:34.796Z,3.25
2024-01-28T06:30:01.134Z,2.53
2024-01-28T06:32:27.578Z,3.30
2024-01-28T06:34:54.069Z,3.23
2024-01-28T06:37:20.507Z,3.40
2024-01-28T06:39:46.943Z,2.83
2024-01-28T06:42:14.834Z,2.75
2024-01-28T06:44:41.196Z,3.08
2024-01-28T06:47:07.829Z,3.50
2024-01-28T06:49:34.296Z,3.22
2024-01-28T06:52:00.723Z,3.08
2024-01-28T06:54:27.176Z,2.90
2024-01-28T06:56:53.526Z,3.55
2024-01-28T06:59:19.881Z,3.30
2024-01-28T07:01:47.360Z,3.03
2024-01-28T07:04:13.953Z,3.38
2024-01-28T07:06:40.508Z,2.92
2024-01-28T07:09:07.188Z,3.58
2024-01-28T07:11:33.575Z,3.40
2024-01-28T07:13:59.914Z,3.25
2024-01-28T07:16:26.282Z,3.28
2024-01-28T07:18:52.816Z,2.80
2024-01-28T07:21:19.487Z,3.40
2024-01-28T07:23:45.870Z,3.10
2024-01-28T07:26:12.251Z,3.25
2024-01-28T07:28:38.639Z,3.17
2024-01-28T07:31:05.172Z,2.95
2024-01-28T07:33:31.663Z,3.63
2024-01-28T07:35:58.285Z,3.77
2024-01-28T07:38:24.623Z,3.72
2024-01-28T07:40:51.025Z,3.83
2024-01-28T07:43:17.368Z,3.40
2024-01-28T07:45:44.060Z,3.83
2024-01-28T07:48:10.620Z,3.40
2024-01-28T07:50:37.106Z,3.42
2024-01-28T07:53:03.577Z,3.75
2024-01-28T07:55:29.920Z,3.33
2024-01-28T07:57:56.413Z,3.97
2024-01-28T08:00:23.651Z,3.37
2024-01-28T08:02:50.056Z,3.47
2024-01-28T08:05:16.448Z,3.67
2024-01-28T08:07:42.874Z,3.40
2024-01-28T08:10:09.474Z,3.03
2024-01-28T08:12:35.965Z,3.90
2024-01-28T08:15:02.432Z,3.50
2024-01-28T08:17:28.876Z,2.92
2024-01-28T08:19:55.762Z,3.33
2024-01-28T08:22:22.124Z,3.28
2024-01-28T08:24:48.611Z,3.60
2024-01-28T08:27:15.144Z,3.08
2024-01-28T08:29:41.494Z,3.00
2024-01-28T08:32:07.858Z,3.70
2024-01-28T08:34:34.382Z,3.72
2024-01-28T08:37:00.930Z,3.73
2024-01-28T08:39:27.410Z,4.05
2024-01-28T08:41:53.814Z,3.08
2024-01-28T08:44:20.200Z,4.47
2024-01-28T08:46:46.547Z,3.95
2024-01-28T08:49:13.249Z,3.53
2024-01-28T08:51:41.057Z,3.70
2024-01-28T08:54:07.505Z,3.17
2024-01-28T08:56:33.935Z,3.20
2024-01-28T08:59:00.241Z,3.42
2024-01-28T09:01:26.722Z,3.03
2024-01-28T09:03:53.187Z,3.28
2024-01-28T09:06:20.085Z,3.47
2024-01-28T09:08:46.816Z,3.25
2024-01-28T09:11:13.517Z,3.50
2024-01-28T09:13:39.900Z,3.67
2024-01-28T09:16:06.564Z,3.75
2024-01-28T09:18:33.012Z,3.63
2024-01-28T09:20:59.444Z,3.45
2024-01-28T09:23:26.267Z,4.18
2024-01-28T09:25:52.656Z,3.90
2024-01-28T09:28:19.076Z,3.40
2024-01-28T09:30:45.523Z,3.67
2024-01-28T09:33:12.244Z,3.13
2024-01-28T09:35:38.699Z,3.42
2024-01-28T09:38:05.200Z,3.40
2024-01-28T09:40:31.518Z,3.67
2024-01-28T09:43:16.708Z,3.35
2024-01-28T09:45:43.169Z,3.22
2024-01-28T09:48:10.983Z,3.88
2024-01-28T09:50:38.199Z,3.73
2024-01-28T09:53:04.879Z,3.53
2024-01-28T09:55:34.029Z,3.53
2024-01-28T09:58:00.523Z,3.90
2024-01-28T10:00:27.019Z,3.30
2024-01-28T10:02:53.553Z,3.43
2024-01-28T10:05:20.096Z,3.28
2024-01-28T10:07:49.211Z,3.58
2024-01-28T10:10:17.340Z,3.60
2024-01-28T10:12:47.834Z,3.45
2024-01-28T10:15:19.799Z,3.40
2024-01-28T10:17:51.022Z,2.92
2024-01-28T10:20:22.258Z,3.70
2024-01-28T10:22:49.178Z,3.63
2024-01-28T10:25:17.003Z,3.55
2024-01-28T10:27:44.400Z,3.00
2024-01-28T10:30:12.570Z,3.25
2024-01-28T10:32:39.214Z,2.60
2024-01-28T10:35:12.740Z,3.47
2024-01-28T10:37:40.991Z,2.95
2024-01-28T10:40:08.773Z,3.00
2024-01-28T10:42:42.751Z,2.97
2024-01-28T10:45:13.823Z,2.95
2024-01-28T10:47:43.482Z,3.25
2024-01-28T10:50:14.280Z,2.95
2024-01-28T10:52:42.085Z,2.87
2024-01-28T10:55:09.374Z,3.00
2024-01-28T10:57:41.160Z,2.58
2024-01-28T11:00:08.458Z,3.28
2024-01-28T11:02:36.791Z,2.50
2024-01-28T11:05:05.203Z,3.20
2024-01-28T11:07:31.984Z,2.75
2024-01-28T11:10:02.349Z,2.90
2024-01-28T11:12:29.101Z,2.47
2024-01-28T11:14:59.418Z,2.40
2024-01-28T11:17:36.794Z,2.40
2024-01-28T11:20:10.743Z,2.55
2024-01-28T11:23:14.257Z,2.15
2024-01-28T11:25:40.818Z,2.22
2024-01-28T11:28:08.223Z,2.60
2024-01-28T11:30:36.151Z,2.23
2024-01-28T11:33:14.336Z,2.40
2024-01-28T11:35:42.740Z,2.03
2024-01-28T11:38:09.261Z,2.38
2024-01-28T11:40:39.967Z,2.20
2024-01-28T11:43:09.085Z,3.27
2024-01-28T11:45:36.968Z,2.50
2024-01-28T11:48:10.596Z,2.30
2024-01-28T11:50:37.332Z,2.53
2024-01-28T11:53:03.873Z,2.38
2024-01-28T11:55:31.320Z,2.50
2024-01-28T11:57:57.882Z,1.90
2024-01-28T12:00:24.754Z,2.00
2024-01-28T12:02:51.177Z,2.22
2024-01-28T12:05:17.731Z,2.42
2024-01-28T12:07:47.049Z,1.90
2024-01-28T12:10:14.355Z,2.10
2024-01-28T12:12:42.086Z,2.40
2024-01-28T12:15:10.860Z,2.30
2024-01-28T12:17:41.996Z,2.05
2024-01-28T12:20:19.552Z,2.03
2024-01-28T12:22:45.961Z,2.47
2024-01-28T12:25:14.516Z,2.83
2024-01-28T12:27:41.788Z,2.58
2024-01-28T12:30:09.054Z,1.70
2024-01-28T12:32:35.466Z,2.30
2024-01-28T12:35:01.895Z,2.30
2024-01-28T12:37:28.272Z,1.50
2024-01-28T12:39:54.698Z,1.98
2024-01-28T12:42:21.237Z,1.90
2024-01-28T12:44:47.614Z,2.00
2024-01-28T12:47:13.973Z,2.00
2024-01-28T12:49:40.574Z,1.83
2024-01-28T12:52:07.541Z,1.85
2024-01-28T12:54:34.037Z,2.13
2024-01-28T12:57:00.601Z,1.63
2024-01-28T12:59:26.964Z,1.70
2024-01-28T13:01:53.520Z,1.85
2024-01-28T13:04:20.239Z,1.90
2024-01-28T13:06:46.859Z,2.00
2024-01-28T13:09:14.384Z,2.17
2024-01-28T13:11:40.935Z,1.60
2024-01-28T13:14:07.325Z,1.80
2024-01-28T13:16:33.687Z,2.13
2024-01-28T13:19:01.143Z,1.75
2024-01-28T13:21:27.609Z,1.80
2024-01-28T13:23:54.527Z,1.50
2024-01-28T13:26:20.985Z,2.78
2024-01-28T13:28:48.628Z,1.95
2024-01-28T13:31:14.965Z,2.10
2024-01-28T13:33:42.061Z,2.60
2024-01-28T13:36:08.575Z,3.50
2024-01-28T13:38:34.893Z,3.50
2024-01-28T13:41:01.305Z,2.50
2024-01-28T13:43:27.697Z,1.77
2024-01-28T13:45:54.185Z,2.20
2024-01-28T13:48:20.737Z,1.90
2024-01-28T13:50:47.186Z,2.08
2024-01-28T13:53:13.558Z,2.40
2024-01-28T13:55:39.925Z,2.00
2024-01-28T13:58:06.503Z,2.30
2024-01-28T14:00:32.843Z,3.20
2024-01-28T14:03:00.714Z,2.72
2024-01-28T14:05:27.135Z,1.80
2024-01-28T14:07:53.618Z,2.42
2024-01-28T14:10:20.024Z,2.60
2024-01-28T14:12:46.428Z,2.88
2024-01-28T14:15:12.936Z,2.72
2024-01-28T14:17:39.499Z,1.83
2024-01-28T14:20:07.763Z,2.40
2024-01-28T14:22:34.147Z,2.53
2024-01-28T14:25:00.615Z,2.65
2024-01-28T14:27:27.082Z,2.45
2024-01-28T14:29:53.445Z,2.38
2024-01-28T14:32:19.937Z,2.60
2024-01-28T14:34:46.508Z,2.80
2024-01-28T14:37:13.123Z,2.35
2024-01-28T14:39:39.501Z,2.67
2024-01-28T14:42:06.036Z,2.28
2024-01-28T14:44:32.439Z,2.63
2024-01-28T14:46:58.918Z,2.80
2024-01-28T14:49:25.499Z,2.90
2024-01-28T14:51:52.045Z,2.58
2024-01-28T14:54:19.665Z,3.05
2024-01-28T14:56:46.178Z,2.50
2024-01-28T14:59:12.568Z,2.90
2024-01-28T15:01:38.976Z,2.92
2024-01-28T15:04:05.862Z,3.13
2024-01-28T15:06:32.398Z,3.08
2024-01-28T15:08:58.929Z,3.35
2024-01-28T15:11:25.402Z,3.63
2024-01-28T15:13:51.757Z,4.28
2024-01-28T15:16:18.258Z,4.15
2024-01-28T15:18:44.765Z,6.55
2024-01-28T15:21:11.275Z,4.97
2024-01-28T15:23:37.671Z,4.40
2024-01-28T15:26:04.125Z,3.47
2024-01-28T15:28:38.327Z,3.17
2024-01-28T15:31:06.137Z,3.40
2024-01-28T15:33:32.724Z,3.92
2024-01-28T15:35:59.202Z,3.97
2024-01-28T15:38:25.612Z,3.42
2024-01-28T15:40:52.024Z,3.28
2024-01-28T15:43:18.442Z,3.10
2024-01-28T15:45:45.037Z,2.70
2024-01-28T15:48:11.696Z,3.43
2024-01-28T15:50:38.088Z,3.50
2024-01-28T15:53:04.491Z,3.70
2024-01-28T15:55:32.192Z,3.63
2024-01-28T15:58:00.062Z,3.75
2024-01-28T16:00:26.695Z,3.23
2024-01-28T16:02:53.195Z,3.85
2024-01-28T16:05:20.104Z,3.38
2024-01-28T16:07:46.550Z,3.72
2024-01-28T16:10:13.160Z,3.67
2024-01-28T16:12:40.224Z,3.67
2024-01-28T16:15:08.020Z,4.00
2024-01-28T16:17:34.497Z,3.90
2024-01-28T16:20:01.187Z,3.45
2024-01-28T16:22:27.779Z,3.97
2024-01-28T16:24:54.295Z,4.40
2024-01-28T16:27:20.850Z,4.07
2024-01-28T16:29:47.271Z,3.97
2024-01-28T16:32:13.691Z,4.07
2024-01-28T16:34:41.030Z,4.05
2024-01-28T16:37:07.797Z,4.20
2024-01-28T16:39:34.414Z,3.72
2024-01-28T16:42:00.959Z,4.00
2024-01-28T16:44:27.381Z,3.72
2024-01-28T16:46:54.149Z,3.88
2024-01-28T16:49:20.680Z,3.70
2024-01-28T16:51:47.895Z,4.57
2024-01-28T16:54:14.281Z,4.22
2024-01-28T16:56:40.756Z,3.58
2024-01-28T16:59:07.173Z,4.72
2024-01-28T17:01:33.638Z,5.23
2024-01-28T17:04:00.212Z,4.93
2024-01-28T17:06:26.786Z,5.10
2024-01-28T17:08:53.189Z,4.60
2024-01-28T17:11:19.648Z,3.97
2024-01-28T17:13:46.027Z,4.20
2024-01-28T17:16:12.839Z,4.00
2024-01-28T17:18:39.221Z,3.53
2024-01-28T17:21:05.766Z,3.70
2024-01-28T17:23:32.142Z,3.70
2024-01-28T17:25:58.727Z,4.50
2024-01-28T17:28:25.215Z,4.22
2024-01-28T17:30:51.588Z,3.90
2024-01-28T17:33:18.658Z,4.68
2024-01-28T17:35:45.428Z,4.38
2024-01-28T17:38:11.975Z,4.60
2024-01-28T17:40:38.405Z,4.22
2024-01-28T17:43:05.321Z,3.47
2024-01-28T17:45:32.077Z,3.50
2024-01-28T17:47:58.628Z,3.30
2024-01-28T17:50:25.013Z,3.80
2024-01-28T17:52:51.414Z,4.03
2024-01-28T17:55:17.811Z,3.80
2024-01-28T17:57:44.367Z,4.60
2024-01-28T18:00:11.351Z,4.55
2024-01-28T18:02:37.822Z,5.20
2024-01-28T18:05:04.385Z,3.40
2024-01-28T18:07:30.915Z,3.60
2024-01-28T18:09:57.509Z,3.10
2024-01-28T18:12:23.959Z,3.70
2024-01-28T18:14:50.402Z,3.53
2024-01-28T18:17:17.641Z,3.60
2024-01-28T18:19:44.156Z,3.83
2024-01-28T18:22:10.675Z,3.47
2024-01-28T18:24:37.074Z,3.78
2024-01-28T18:27:04.641Z,3.70
2024-01-28T18:29:31.873Z,3.50
2024-01-28T18:31:58.617Z,3.42
2024-01-28T18:34:25.423Z,3.60
2024-01-28T18:36:51.906Z,3.47
2024-01-28T18:39:18.334Z,3.70
2024-01-28T18:41:48.252Z,3.67
2024-01-28T18:44:14.644Z,3.20
2024-01-28T18:46:42.662Z,3.50
2024-01-28T18:49:09.098Z,3.42
2024-01-28T18:51:35.518Z,3.70
2024-01-28T18:54:01.869Z,3.25
2024-01-28T18:56:28.359Z,3.72
2024-01-28T18:58:54.824Z,3.85
2024-01-28T19:01:21.359Z,3.20
2024-01-28T19:03:47.810Z,3.50
2024-01-28T19:06:14.748Z,3.08
2024-01-28T19:08:41.384Z,3.85
2024-01-28T19:11:10.636Z,3.65
2024-01-28T19:13:36.978Z,3.58
2024-01-28T19:16:03.588Z,3.90
2024-01-28T19:18:30.161Z,3.35
2024-01-28T19:20:56.536Z,3.58
2024-01-28T19:23:22.968Z,3.40
2024-01-28T19:25:49.450Z,3.50
2024-01-28T19:28:16.765Z,4.10
2024-01-28T19:30:43.193Z,3.40
2024-01-28T19:33:09.799Z,3.47
2024-01-28T19:35:36.186Z,3.42
2024-01-28T19:38:02.697Z,3.90
2024-01-28T19:40:29.124Z,4.13
2024-01-28T19:42:55.568Z,3.60
2024-01-28T19:45:22.053Z,4.05
2024-01-28T19:47:48.670Z,4.75
2024-01-28T19:50:15.110Z,4.78
2024-01-28T19:52:41.499Z,5.53
2024-01-28T19:55:08.433Z,5.53
2024-01-28T19:57:35.880Z,4.63
2024-01-28T20:00:02.434Z,5.32
2024-01-28T20:02:28.797Z,4.60
2024-01-28T20:04:55.234Z,4.87
2024-01-28T20:07:21.724Z,5.50
2024-01-28T20:09:48.167Z,5.78
2024-01-28T20:12:14.565Z,5.60
2024-01-28T20:14:40.950Z,5.32
2024-01-28T20:17:07.263Z,6.00
2024-01-28T20:19:33.994Z,5.47
2024-01-28T20:22:01.598Z,4.22
2024-01-28T20:24:28.076Z,4.47
2024-01-28T20:26:54.406Z,5.20
2024-01-28T20:29:21.822Z,5.87
2024-01-28T20:31:48.238Z,5.03
2024-01-28T20:34:14.805Z,5.20
2024-01-28T20:36:41.341Z,4.60
2024-01-28T20:39:07.756Z,5.25
2024-01-28T20:41:34.127Z,4.90
2024-01-28T20:44:01.442Z,3.88
2024-01-28T20:46:27.870Z,3.92
2024-01-28T20:48:54.469Z,4.18
2024-01-28T20:51:21.782Z,4.45
2024-01-28T20:53:48.233Z,4.18
2024-01-28T20:56:14.818Z,4.00
2024-01-28T20:58:42.340Z,4.80
2024-01-28T21:01:08.902Z,4.50
2024-01-28T21:03:35.541Z,4.40
2024-01-28T21:06:02.117Z,4.37
2024-01-28T21:08:29.586Z,4.55
2024-01-28T21:10:56.049Z,4.90
2024-01-28T21:13:25.920Z,4.55
2024-01-28T21:15:52.320Z,5.20
2024-01-28T21:18:18.793Z,4.80
2024-01-28T21:20:45.426Z,4.50
2024-01-28T21:23:11.843Z,4.10
2024-01-28T21:25:38.648Z,4.07
2024-01-28T21:28:07.957Z,3.75
2024-01-28T21:30:34.494Z,4.20
2024-01-28T21:33:01.025Z,4.55
2024-01-28T21:35:27.553Z,4.20
2024-01-28T21:37:53.970Z,4.47
2024-01-28T21:40:20.368Z,4.32
2024-01-28T21:42:46.751Z,3.90
2024-01-28T21:45:13.525Z,4.20
2024-01-28T21:47:39.944Z,4.10
2024-01-28T21:50:07.924Z,4.15
2024-01-28T21:52:34.290Z,4.00
2024-01-28T21:55:00.740Z,4.50
2024-01-28T21:57:28.276Z,5.20
2024-01-28T21:59:54.668Z,4.72
2024-01-28T22:02:21.033Z,4.72
2024-01-28T22:04:47.449Z,4.60
2024-01-28T22:07:14.123Z,4.73
2024-01-28T22:09:40.634Z,4.55
2024-01-28T22:12:07.623Z,4.55
2024-01-28T22:14:34.039Z,4.18
2024-01-28T22:17:00.879Z,4.35
2024-01-28T22:19:27.339Z,4.10
2024-01-28T22:21:53.925Z,4.07
2024-01-28T22:24:20.412Z,4.30
2024-01-28T22:26:46.847Z,4.32
2024-01-28T22:29:13.515Z,4.13
2024-01-28T22:31:40.408Z,4.40
2024-01-28T22:34:06.979Z,4.32
2024-01-28T22:36:33.410Z,3.90
2024-01-28T22:38:59.867Z,4.30
2024-01-28T22:41:27.040Z,4.25
2024-01-28T22:43:53.353Z,4.50
2024-01-28T22:46:19.668Z,4.40
2024-01-28T22:48:46.169Z,3.97
2024-01-28T22:51:22.465Z,4.28
2024-01-28T22:53:48.863Z,4.07
2024-01-28T22:56:15.225Z,4.70
2024-01-28T22:58:41.590Z,4.22
2024-01-28T23:01:07.989Z,4.25
2024-01-28T23:03:34.471Z,4.38
2024-01-28T23:06:01.063Z,4.55
2024-01-28T23:08:27.530Z,4.00
2024-01-28T23:10:53.985Z,4.00
2024-01-28T23:13:20.439Z,3.85
2024-01-28T23:15:46.968Z,3.58
2024-01-28T23:18:15.530Z,3.90
2024-01-28T23:20:43.067Z,3.57
2024-01-28T23:23:09.388Z,3.78
2024-01-28T23:25:35.786Z,3.47
2024-01-28T23:28:02.225Z,4.03
2024-01-28T23:30:28.644Z,3.92
2024-01-28T23:32:55.279Z,4.33
2024-01-28T23:35:21.791Z,4.40
2024-01-28T23:37:48.131Z,4.00
2024-01-28T23:40:14.666Z,4.78
2024-01-28T23:42:41.140Z,5.00
2024-01-28T23:45:08.941Z,4.60
2024-01-28T23:47:35.376Z,4.25
2024-01-28T23:50:02.522Z,4.40
2024-01-28T23:52:28.907Z,4.25
2024-01-28T23:54:55.687Z,4.43
2024-01-28T23:57:22.551Z,4.77
2024-01-28T23:59:48.928Z,4.85
